Terminal Aerodrome Forecast
Issued by NWS Wakefield, VA

Home | Current Version | Previous Version | Text Only | Print | Product List | Glossary On
Versions: 1 2 3 4 5 6 7 8 9 10 11 12 13 14 15 16 17 18 19 20 21
593
FTUS41 KAKQ 282104 AAA
TAFSBY
TAF AMD
KSBY 282104Z 2821/2918 25010KT P6SM VCSH SCT060 BKN100
     FM290000 30008KT P6SM VCSH BKN060
     FM290600 35010KT P6SM BKN008
     FM291200 35010KT P6SM BKN015
     FM291400 35010G15KT P6SM SCT025=

USA.gov is the U.S. government's official web portal to all federal, state and local government web resources and services.